createdAt,value
2022-12-27T00:02:16.716Z,3.98
2022-12-27T00:06:22.027Z,4.05
2022-12-27T00:10:25.108Z,4.03
2022-12-27T00:14:30.566Z,3.97
2022-12-27T00:18:33.995Z,4.01
2022-12-27T00:22:37.156Z,3.98
2022-12-27T00:26:41.064Z,3.96
2022-12-27T00:30:45.461Z,3.96
2022-12-27T00:34:48.840Z,3.98
2022-12-27T00:38:53.085Z,3.97
2022-12-27T00:42:56.227Z,4.13
2022-12-27T00:47:00.978Z,4.05
2022-12-27T00:51:06.613Z,4.05
2022-12-27T00:55:11.071Z,4.05
2022-12-27T00:59:14.225Z,4.08
2022-12-27T01:03:20.126Z,4.16
2022-12-27T01:07:23.195Z,4.19
2022-12-27T01:11:28.484Z,4.19
2022-12-27T01:15:31.816Z,4.20
2022-12-27T01:19:38.199Z,4.18
2022-12-27T01:23:42.466Z,4.12
2022-12-27T01:27:45.495Z,4.15
2022-12-27T01:31:50.090Z,4.15
2022-12-27T01:35:55.151Z,4.03
2022-12-27T01:39:58.375Z,4.04
2022-12-27T01:44:01.608Z,4.11
2022-12-27T01:48:08.437Z,4.10
2022-12-27T01:52:14.525Z,4.01
2022-12-27T01:56:22.634Z,4.14
2022-12-27T02:00:26.551Z,4.12
2022-12-27T02:04:33.300Z,4.08
2022-12-27T02:08:44.989Z,4.11
2022-12-27T02:12:48.193Z,4.09
2022-12-27T02:16:51.962Z,4.08
2022-12-27T02:21:28.909Z,4.08
2022-12-27T02:25:51.079Z,4.14
2022-12-27T02:30:01.051Z,4.11
2022-12-27T02:34:09.874Z,4.09
2022-12-27T02:38:20.565Z,4.19
2022-12-27T02:42:41.671Z,4.22
2022-12-27T02:47:04.881Z,4.25
2022-12-27T02:51:42.775Z,4.24
2022-12-27T02:56:19.497Z,4.18
2022-12-27T03:00:42.659Z,4.29
2022-12-27T03:05:06.427Z,4.23
2022-12-27T03:09:34.705Z,4.21
2022-12-27T03:14:01.569Z,4.18
2022-12-27T03:18:10.431Z,4.25
2022-12-27T03:22:34.527Z,4.21
2022-12-27T03:26:40.875Z,4.17
2022-12-27T03:31:04.851Z,4.18
2022-12-27T03:35:14.968Z,4.18
2022-12-27T03:39:26.478Z,4.23
2022-12-27T03:43:29.958Z,4.22
2022-12-27T03:47:40.262Z,4.25
2022-12-27T03:51:48.693Z,4.19
2022-12-27T03:55:53.810Z,4.11
2022-12-27T03:59:57.100Z,3.99
2022-12-27T04:04:00.617Z,4.10
2022-12-27T04:08:21.278Z,4.13
2022-12-27T04:12:43.287Z,4.20
2022-12-27T04:17:03.846Z,4.18
2022-12-27T04:21:24.375Z,4.03
2022-12-27T04:25:45.115Z,4.11
2022-12-27T04:30:07.620Z,4.12
2022-12-27T04:34:29.429Z,4.26
2022-12-27T04:38:32.744Z,4.25
2022-12-27T04:42:53.442Z,4.26
2022-12-27T04:47:15.577Z,4.42
2022-12-27T04:51:36.218Z,4.54
2022-12-27T04:55:39.277Z,4.49
2022-12-27T05:00:00.135Z,4.60
2022-12-27T05:04:05.639Z,4.59
2022-12-27T05:08:26.679Z,4.52
2022-12-27T05:12:47.707Z,4.39
2022-12-27T05:16:50.745Z,4.35
2022-12-27T05:20:55.268Z,4.43
2022-12-27T05:25:16.103Z,4.44
2022-12-27T05:29:19.264Z,4.43
2022-12-27T05:33:22.388Z,4.42
2022-12-27T05:37:26.917Z,4.39
2022-12-27T05:41:29.996Z,4.37
2022-12-27T05:45:34.332Z,4.39
2022-12-27T05:49:37.540Z,4.27
2022-12-27T05:53:42.279Z,4.37
2022-12-27T05:57:45.355Z,4.39
2022-12-27T06:01:49.607Z,4.38
2022-12-27T06:05:52.945Z,4.39
2022-12-27T06:09:57.393Z,4.36
2022-12-27T06:14:01.515Z,4.25
2022-12-27T06:18:06.700Z,4.26
2022-12-27T06:22:10.368Z,4.30
2022-12-27T06:26:17.623Z,4.26
2022-12-27T06:30:20.959Z,4.20
2022-12-27T06:34:24.153Z,4.23
2022-12-27T06:38:27.247Z,4.27
2022-12-27T06:42:32.148Z,4.22
2022-12-27T06:46:35.363Z,4.25
2022-12-27T06:50:38.501Z,4.14
2022-12-27T06:54:43.265Z,4.15
2022-12-27T06:58:49.383Z,4.12
2022-12-27T07:02:52.669Z,4.07
2022-12-27T07:06:55.822Z,4.09
2022-12-27T07:11:01.333Z,4.04
2022-12-27T07:15:06.838Z,3.99
2022-12-27T07:19:11.177Z,3.96
2022-12-27T07:23:19.223Z,3.96
2022-12-27T07:27:22.576Z,3.99
2022-12-27T07:31:29.797Z,4.06
2022-12-27T07:35:32.999Z,4.02
2022-12-27T07:39:36.083Z,4.06
2022-12-27T07:43:39.642Z,4.07
2022-12-27T07:47:44.098Z,4.12
2022-12-27T07:51:47.224Z,4.13
2022-12-27T07:55:51.091Z,4.26
2022-12-27T07:59:54.472Z,4.33
2022-12-27T08:03:58.887Z,4.51
2022-12-27T08:08:02.634Z,4.76
2022-12-27T08:12:08.296Z,4.83
2022-12-27T08:16:17.319Z,4.73
2022-12-27T08:20:21.842Z,4.58
2022-12-27T08:24:25.157Z,4.55
2022-12-27T08:28:31.520Z,4.53
2022-12-27T08:32:34.635Z,4.50
2022-12-27T08:36:55.090Z,4.48
2022-12-27T08:40:58.879Z,4.54
2022-12-27T08:45:01.922Z,4.58
2022-12-27T08:49:06.074Z,4.68
2022-12-27T08:53:11.533Z,4.76
2022-12-27T08:57:14.725Z,4.84
2022-12-27T09:01:18.955Z,5.07
2022-12-27T09:05:22.918Z,5.66
2022-12-27T09:09:27.371Z,6.00
2022-12-27T09:13:30.725Z,6.44
2022-12-27T09:17:34.329Z,6.62
2022-12-27T09:21:41.110Z,6.22
2022-12-27T09:25:45.909Z,6.67
2022-12-27T09:29:48.943Z,6.77
2022-12-27T09:33:52.626Z,6.18
2022-12-27T09:37:55.838Z,6.47
2022-12-27T09:42:47.659Z,6.18
2022-12-27T09:46:42.535Z,6.89
2022-12-27T09:50:51.737Z,7.58
2022-12-27T09:55:05.177Z,8.07
2022-12-27T09:59:21.323Z,8.12
2022-12-27T10:03:28.126Z,8.48
2022-12-27T10:07:42.651Z,8.49
2022-12-27T10:11:55.917Z,9.01
2022-12-27T10:16:12.714Z,8.37
2022-12-27T10:20:24.375Z,8.61
2022-12-27T10:24:35.391Z,8.81
2022-12-27T10:28:40.981Z,8.54
2022-12-27T10:32:45.818Z,8.74
2022-12-27T10:36:49.224Z,8.69
2022-12-27T10:40:58.770Z,8.08
2022-12-27T10:45:28.049Z,7.72
2022-12-27T10:49:34.328Z,8.03
2022-12-27T10:53:40.643Z,8.38
2022-12-27T10:57:43.913Z,8.75
2022-12-27T11:01:50.086Z,8.73
2022-12-27T11:06:06.369Z,8.77
2022-12-27T11:10:17.198Z,8.49
2022-12-27T11:14:22.010Z,8.25
2022-12-27T11:18:25.132Z,8.52
2022-12-27T11:22:30.013Z,9.20
2022-12-27T11:26:40.669Z,8.04
2022-12-27T11:30:53.853Z,8.00
2022-12-27T11:34:57.966Z,7.87
2022-12-27T11:39:03.128Z,7.84
2022-12-27T11:43:12.279Z,8.22
2022-12-27T11:47:28.287Z,7.96
2022-12-27T11:52:02.637Z,8.12
2022-12-27T11:56:24.898Z,8.03
2022-12-27T12:00:36.704Z,8.03
2022-12-27T12:05:13.006Z,7.83
2022-12-27T12:09:27.487Z,8.02
2022-12-27T12:14:08.424Z,7.97
2022-12-27T12:18:34.126Z,7.93
2022-12-27T12:22:55.977Z,7.82
2022-12-27T12:27:15.853Z,7.87
2022-12-27T12:31:34.354Z,7.99
2022-12-27T12:35:50.019Z,8.08
2022-12-27T12:40:14.524Z,7.95
2022-12-27T12:44:39.541Z,7.93
2022-12-27T12:49:21.179Z,7.94
2022-12-27T12:53:38.909Z,7.95
2022-12-27T12:57:53.706Z,7.96
2022-12-27T13:02:21.637Z,8.01
2022-12-27T13:06:56.354Z,7.94
2022-12-27T13:11:21.908Z,7.86
2022-12-27T13:15:39.739Z,7.87
2022-12-27T13:20:02.228Z,7.76
2022-12-27T13:24:23.760Z,7.47
2022-12-27T13:28:40.220Z,7.48
2022-12-27T13:33:02.774Z,7.54
2022-12-27T13:37:17.183Z,7.60
2022-12-27T13:41:37.227Z,7.68
2022-12-27T13:45:52.943Z,7.76
2022-12-27T13:50:12.894Z,7.78
2022-12-27T13:54:49.816Z,7.82
2022-12-27T13:59:32.101Z,7.84
2022-12-27T14:03:55.133Z,7.90
2022-12-27T14:08:09.674Z,7.87
2022-12-27T14:12:43.787Z,7.90
2022-12-27T14:17:05.935Z,7.95
2022-12-27T14:21:31.635Z,7.95
2022-12-27T14:26:00.568Z,7.93
2022-12-27T14:30:24.292Z,7.91
2022-12-27T14:35:00.156Z,7.93
2022-12-27T14:39:32.093Z,7.92
2022-12-27T14:44:02.760Z,7.94
2022-12-27T14:48:59.437Z,7.97
2022-12-27T14:53:42.463Z,7.96
2022-12-27T14:57:56.935Z,7.97
2022-12-27T15:02:19.567Z,7.92
2022-12-27T15:06:40.482Z,7.90
2022-12-27T15:11:08.725Z,8.05
2022-12-27T15:15:29.646Z,8.09
2022-12-27T15:19:48.738Z,8.03
2022-12-27T15:23:54.693Z,7.88
2022-12-27T15:28:07.360Z,7.68
2022-12-27T15:32:25.355Z,7.67
2022-12-27T15:36:40.286Z,7.64
2022-12-27T15:41:19.736Z,7.53
2022-12-27T15:45:38.176Z,7.50
2022-12-27T15:50:13.635Z,7.48
2022-12-27T15:54:28.730Z,7.46
2022-12-27T15:58:32.484Z,7.41
2022-12-27T16:02:39.192Z,7.47
2022-12-27T16:06:52.542Z,7.42
2022-12-27T16:10:57.315Z,7.31
2022-12-27T16:15:34.279Z,7.35
2022-12-27T16:19:55.084Z,7.29
2022-12-27T16:24:07.137Z,7.18
2022-12-27T16:28:23.941Z,7.24
2022-12-27T16:32:28.559Z,7.25
2022-12-27T16:36:35.295Z,7.25
2022-12-27T16:40:48.391Z,7.14
2022-12-27T16:45:02.953Z,7.11
2022-12-27T16:49:32.713Z,7.10
2022-12-27T16:54:04.369Z,7.15
2022-12-27T16:58:36.395Z,7.06
2022-12-27T17:02:42.031Z,6.97
2022-12-27T17:06:57.337Z,6.94
2022-12-27T17:11:25.191Z,6.92
2022-12-27T17:15:30.645Z,6.97
2022-12-27T17:19:38.503Z,6.95
2022-12-27T17:23:44.394Z,6.97
2022-12-27T17:27:59.926Z,6.98
2022-12-27T17:32:12.288Z,6.89
2022-12-27T17:36:29.888Z,6.74
2022-12-27T17:40:42.486Z,6.75
2022-12-27T17:45:10.280Z,6.64
2022-12-27T17:49:16.289Z,6.72
2022-12-27T17:53:40.157Z,6.78
2022-12-27T17:57:55.446Z,6.69
2022-12-27T18:02:04.881Z,6.60
2022-12-27T18:06:10.218Z,6.59
2022-12-27T18:10:20.178Z,6.44
2022-12-27T18:14:23.385Z,6.37
2022-12-27T18:18:29.634Z,6.33
2022-12-27T18:22:34.079Z,6.33
2022-12-27T18:26:39.480Z,6.27
2022-12-27T18:30:47.789Z,6.20
2022-12-27T18:34:55.496Z,6.14
2022-12-27T18:39:03.542Z,6.16
2022-12-27T18:43:15.488Z,6.14
2022-12-27T18:47:21.523Z,6.10
2022-12-27T18:51:31.909Z,5.99
2022-12-27T18:55:38.019Z,6.04
2022-12-27T18:59:41.454Z,5.98
2022-12-27T19:03:44.674Z,5.97
2022-12-27T19:07:49.152Z,5.88
2022-12-27T19:11:56.406Z,5.81
2022-12-27T19:16:00.301Z,5.80
2022-12-27T19:20:06.761Z,5.71
2022-12-27T19:24:36.910Z,5.67
2022-12-27T19:28:41.552Z,5.69
2022-12-27T19:32:44.632Z,5.58
2022-12-27T19:36:49.421Z,5.54
2022-12-27T19:41:01.315Z,5.55
2022-12-27T19:45:08.627Z,5.66
2022-12-27T19:53:38.699Z,5.56
2022-12-27T19:57:41.791Z,5.55
2022-12-27T20:01:46.621Z,5.55
2022-12-27T20:06:14.531Z,5.54
2022-12-27T20:10:16.355Z,5.53
2022-12-27T20:14:19.565Z,5.62
2022-12-27T20:18:24.898Z,5.59
2022-12-27T20:22:28.475Z,5.73
2022-12-27T20:26:32.960Z,5.62
2022-12-27T20:30:38.931Z,5.70
2022-12-27T20:34:43.394Z,5.68
2022-12-27T20:38:46.637Z,5.74
2022-12-27T20:42:50.247Z,5.70
2022-12-27T20:46:53.615Z,5.74
2022-12-27T20:50:58.069Z,5.67
2022-12-27T20:55:01.160Z,5.65
2022-12-27T20:59:04.672Z,5.69
2022-12-27T21:03:07.881Z,5.74
2022-12-27T21:07:12.695Z,5.75
2022-12-27T21:11:17.321Z,5.75
2022-12-27T21:15:20.463Z,5.82
2022-12-27T21:19:23.560Z,5.82
2022-12-27T21:23:28.018Z,5.83
2022-12-27T21:27:31.131Z,5.86
2022-12-27T21:31:34.920Z,5.86
2022-12-27T21:35:38.243Z,5.87
2022-12-27T21:39:43.611Z,5.87
2022-12-27T21:43:48.950Z,5.86
2022-12-27T21:47:52.587Z,5.96
2022-12-27T21:51:55.849Z,6.01
2022-12-27T21:56:00.347Z,6.04
2022-12-27T22:00:03.447Z,5.99
2022-12-27T22:04:08.209Z,6.03
2022-12-27T22:08:11.368Z,6.06
2022-12-27T22:12:16.321Z,6.08
2022-12-27T22:16:21.615Z,6.06
2022-12-27T22:20:24.777Z,6.09
2022-12-27T22:24:27.856Z,6.09
2022-12-27T22:28:33.061Z,6.18
2022-12-27T22:32:36.171Z,6.31
2022-12-27T22:36:39.359Z,6.31
2022-12-27T22:40:46.530Z,6.28
2022-12-27T22:44:51.384Z,6.43
2022-12-27T22:48:56.041Z,6.46
2022-12-27T22:52:59.272Z,6.63
2022-12-27T22:57:02.739Z,6.65
2022-12-27T23:01:13.765Z,6.69
2022-12-27T23:05:17.057Z,6.78
2022-12-27T23:09:20.135Z,6.80
2022-12-27T23:13:24.936Z,6.82
2022-12-27T23:17:29.475Z,6.90
2022-12-27T23:21:32.602Z,6.88
2022-12-27T23:25:37.052Z,6.95
2022-12-27T23:29:40.415Z,6.98
2022-12-27T23:33:45.299Z,7.00
2022-12-27T23:37:48.497Z,7.04
2022-12-27T23:41:51.582Z,7.12
2022-12-27T23:45:54.703Z,7.18
2022-12-27T23:49:59.269Z,7.21
2022-12-27T23:54:02.516Z,7.15
2022-12-27T23:58:06.340Z,7.19
